Decoded Metar for LEAG (Algeciras in SPAIN) (IATA:N/A) | Meteo·Mobile Aviation Weather
aviador You're here:

LEAG Decoded Metar

Algeciras in SPAIN
Report Time2019-11-14 11:30:00
UTC Time2019-11-14 11:38:35
Flight Rules vfr VFR
Wind270° at 14 Gusting to 30 kt
Visibility9999 m
Phenomena:N/A
Clouds:N/A
Expected CloudBase > 3,600 ft AGL from Temp-Dew spread
CeilingNone
Temp18°C
Dew Point09°C (56% RH)
AAT12.8°C
QNH1012 hPa
Raw Report
METAR LEAG 141130Z AUTO 27014G30KT 210V330 CAVOK 18/09 Q1012=

Extra information for LEAG:More info

Metar Taf Metar & Taf Last 4 Metars F.Rules Stats Wind Profile Meteogram Temp Stats Airport Information Weather charts Add Link Nearby VenuesMetar ALERT Operation Metar Decoded Social comments